Flight Track Log - Related Links

Times and Time Zones

All times are in EDT time to prevent confusion due to time zone crossing. See the SKW6345 flight status page for this flight to view local times or setup timezone preferences in your user account.

Time Position Orientation Groundspeed Altitude Reporting Facility
EDT Latitude Longitude Course Direction KTS MPH feet Rate Location/Type
Thu 09:22:29 AM 44.5042 -109.0561 154° Southeast 154 177 6,200  Level Salt Lake Center
Thu 09:23:00 AM 44.5363 -109.0109 30° Northeast  Level FlightAware Approximate
Thu 09:23:30 AM 44.4567 -109.0669 189° South 226 260 8,700  Level Salt Lake Center
Thu 09:24:00 AM 44.6079 -108.9500 180° South  Level FlightAware Approximate
Thu 09:24:31 AM 44.4736 -108.9911 73° East 242 278 10,700  Level Salt Lake Center
Thu 09:25:00 AM 44.4994 -108.8950 159° South  Level FlightAware Approximate
Thu 09:25:32 AM 44.5492 -108.9872 North 250 288 12,800  Level Salt Lake Center
Thu 09:26:00 AM 44.3922 -108.8336 154° Southeast  Level FlightAware Approximate
Thu 09:26:33 AM 44.5856 -108.8867 63° Northeast 302 348 14,800  Level Salt Lake Center
Thu 09:27:00 AM 44.2875 -108.7639 154° Southeast  Level FlightAware Approximate
Thu 09:27:34 AM 44.5153 -108.7861 134° Southeast 333 383 17,000  Level Salt Lake Center
Thu 09:28:35 AM 44.4269 -108.7536 165° South 342 394 19,300 1,869 Climbing Salt Lake Center
Thu 09:29:36 AM 44.3456 -108.6856 149° Southeast 354 407 20,800 1,770 Climbing Salt Lake Center
Thu 09:30:37 AM 44.2506 -108.5994 147° Southeast 362 417 22,900 1,721 Climbing Salt Lake Center
Thu 09:31:38 AM 44.1647 -108.5244 148° Southeast 375 432 24,300 1,317 Climbing Salt Lake Center
Thu 09:32:40 AM 44.0767 -108.4475 148° Southeast 387 445 25,600 1,268 Climbing Salt Lake Center
Thu 09:33:41 AM 43.9736 -108.3556 147° Southeast 394 453 26,900 1,082 Climbing Salt Lake Center
Thu 09:34:42 AM 43.8853 -108.2789 148° Southeast 392 451 27,800 934 Climbing Salt Lake Center
Thu 09:35:43 AM 43.7792 -108.1856 148° Southeast 403 464 28,800 836 Climbing Salt Lake Center
Thu 09:36:44 AM 43.6856 -108.1053 148° Southeast 410 472 29,500 829 Climbing Salt Lake Center
Thu 09:37:46 AM 43.5914 -108.0194 147° Southeast 418 481 30,500 732 Climbing Salt Lake Center
Thu 09:38:47 AM 43.4808 -107.9258 148° Southeast 419 482 31,000 246 Climbing Salt Lake Center
Thu 09:39:48 AM 43.3836 -107.8406 147° Southeast 427 491 31,000  Level Salt Lake Center
Thu 09:40:49 AM 43.2681 -107.7419 148° Southeast 435 501 31,000  Level Salt Lake Center
Thu 09:41:51 AM 43.1700 -107.6586 148° Southeast 436 502 31,000  Level Salt Lake Center
Thu 09:42:19 AM 43.1169 -107.6117 147° Southeast 434 499 31,000  Level Denver Center
Thu 09:43:20 AM 43.0250 -107.5333 148° Southeast 430 495 31,000  Level Denver Center
Thu 09:44:21 AM 42.9122 -107.4392 149° Southeast 424 488 31,000  Level Denver Center
Thu 09:44:54 AM 42.8589 -107.3947 149° Southeast 424 488 31,000  Level Salt Lake Center
Thu 09:45:56 AM 42.7628 -107.3136 148° Southeast 423 487 31,000  Level Salt Lake Center
Thu 09:46:57 AM 42.6511 -107.2203 148° Southeast 422 486 31,000  Level Salt Lake Center
Thu 09:47:25 AM 42.6103 -107.1844 147° Southeast 423 487 31,000  Level Denver Center
Thu 09:48:38 AM 42.4925 -107.0861 148° Southeast 419 482 31,000  Level Denver Center
Thu 09:49:39 AM 42.3953 -107.0072 149° Southeast 424 488 31,000  Level Denver Center
Thu 09:50:40 AM 42.2833 -106.9128 148° Southeast 423 487 31,000  Level Denver Center
Thu 09:51:41 AM 42.1867 -106.8342 149° Southeast 423 487 31,000  Level Denver Center
Thu 09:52:42 AM 42.0906 -106.7539 148° Southeast 425 489 31,000  Level Denver Center
Thu 09:53:43 AM 41.9817 -106.6467 144° Southeast 431 496 31,000  Level Denver Center
Thu 09:54:45 AM 41.8878 -106.5558 144° Southeast 433 498 31,000  Level Denver Center
Thu 09:55:46 AM 41.7883 -106.4589 144° Southeast 431 496 31,000  Level Denver Center
Thu 09:56:47 AM 41.6783 -106.3533 144° Southeast 435 501 31,000  Level Denver Center
Thu 09:57:48 AM 41.5847 -106.2639 144° Southeast 433 498 31,000  Level Denver Center
Thu 09:58:50 AM 41.4883 -106.1717 144° Southeast 441 507 31,000  Level Denver Center
Thu 09:59:51 AM 41.3775 -106.0650 144° Southeast 441 507 31,000  Level Denver Center
Thu 10:00:52 AM 41.2797 -105.9736 145° Southeast 447 514 31,000  Level Denver Center
Thu 10:01:53 AM 41.1686 -105.8678 144° Southeast 441 507 31,000  Level Denver Center
Thu 10:02:55 AM 41.0722 -105.7778 145° Southeast 442 509 31,000 -927 Level Denver Center
Thu 10:03:56 AM 40.9681 -105.6819 145° Southeast 442 509 29,100 -1,918 Descending Denver Center
Thu 10:04:57 AM 40.8700 -105.5911 145° Southeast 429 494 27,100 -1,951 Descending Denver Center
Thu 10:05:59 AM 40.7775 -105.5017 144° Southeast 411 473 25,100 -1,951 Descending Denver Center
Thu 10:07:00 AM 40.6892 -105.4225 146° Southeast 387 445 23,100 -2,016 Descending Denver Center
Thu 10:08:01 AM 40.6036 -105.3422 145° Southeast 375 432 21,000 -2,000 Descending Denver Center
Thu 10:09:03 AM 40.5206 -105.2678 146° Southeast 361 415 19,000 -1,805 Descending Denver Center
Thu 10:10:04 AM 40.4664 -105.1486 121° Southeast 373 429 17,300 -1,415 Descending Denver Center
Thu 10:11:06 AM 40.4283 -105.0331 113° Southeast 349 402 16,100 -1,317 Descending Denver Center
Thu 10:12:07 AM 40.3706 -104.9294 126° Southeast 329 379 14,600 -1,561 Descending Denver Center
Thu 10:13:09 AM 40.2983 -104.8758 150° Southeast 292 336 12,900 -1,659 Descending Denver Center
Thu 10:14:10 AM 40.2244 -104.8325 156° South 289 333 11,200 -1,644 Descending Denver Center
Thu 10:15:24 AM 40.1386 -104.7814 156° South 276 318 9,200 -1,378 Descending Denver Center
Thu 10:16:25 AM 40.0700 -104.7358 153° Southeast 259 298 8,100 -878 Descending Denver Center
Thu 10:17:27 AM 40.0131 -104.6994 154° Southeast 228 262 7,400 -677 Descending Denver Center
Thu 10:18:29 AM 39.9619 -104.6867 169° South 187 215 6,700 -677 Descending Denver Center

Login

Don't have an account? Register now (free) for customized features, flight alerts, and more!